Time;durP1;ratioP1;P1;durP2;ratioP2;P2;SDS_P1;SDS_P2;PMS_P1;PMS_P2;Temp;Humidity;BMP_temperature;BMP_pressure;BME280_temperature;BME280_humidity;BME280_pressure;Samples;Min_cycle;Max_cycle;Signal;HPM_P1;HPM_P2
2022/07/02 00:01:46;;;;;;;;;;;;;;;;;;4983497;28;19956;-85
2022/07/02 00:04:11;;;;;;;;;;;;;;;;;;4983505;28;19925;-85
2022/07/02 00:06:37;;;;;;;;;;;;;;;;;;4977786;28;20407;-85
2022/07/02 00:09:02;;;;;;;;;;;;;;;;;;4984231;28;20024;-85
2022/07/02 00:11:27;;;;;;;;;;;;;;;;;;4980704;28;19961;-85
2022/07/02 00:13:52;;;;;;;;;;;;;;;;;;4977718;28;20066;-85
2022/07/02 00:16:18;;;;;;;;;;;;;;;;;;4983489;28;19921;-84
2022/07/02 00:18:43;;;;;;;;;;;;;;;;;;4977756;28;20063;-85
2022/07/02 00:21:08;;;;;;;;;;;;;;;;;;4983521;28;19914;-85
2022/07/02 00:23:33;;;;;;;;;;;;;;;;;;4979084;28;19929;-85
2022/07/02 00:25:58;;;;;;;;;;;;;;;;;;4981093;28;20296;-85
2022/07/02 00:28:24;;;;;;;;;;;;;;;;;;4981665;28;19972;-85
2022/07/02 00:30:49;;;;;;;;;;;;;;;;;;4981741;28;19972;-85
2022/07/02 00:33:14;;;;;;;;;;;;;;;;;;4979741;28;20384;-85
2022/07/02 00:35:39;;;;;;;;;;;;;;;;;;4981663;28;19918;-85
2022/07/02 00:38:04;;;;;;;;;;;;;;;;;;4976177;28;19922;-85
2022/07/02 00:40:29;;;;;;;;;;;;;;;;;;4978034;28;19914;-85
2022/07/02 00:42:55;;;;;;;;;;;;;;;;;;4978789;28;20525;-86
2022/07/02 00:45:20;;;;;;;;;;;;;;;;;;4975159;28;20391;-85
2022/07/02 00:47:45;;;;;;;;;;;;;;;;;;4984912;28;19921;-86
2022/07/02 00:50:10;;;;;;;;;;;;;;;;;;4985025;28;19918;-85
2022/07/02 00:52:35;;;;;;;;;;;;;;;;;;4985348;28;19926;-86
2022/07/02 00:55:00;;;;;;;;;;;;;;;;;;4985476;28;20132;-85
2022/07/02 00:57:26;;;;;;;;;;;;;;;;;;4983337;28;20415;-85
2022/07/02 00:59:51;;;;;;;;;;;;;;;;;;4983451;28;19928;-85
2022/07/02 01:02:16;;;;;;;;;;;;;;;;;;4980982;28;19922;-85
2022/07/02 01:04:41;;;;;;;;;;;;;;;;;;4986762;28;20013;-85
2022/07/02 01:07:06;;;;;;;;;;;;;;;;;;4986090;28;19914;-85
2022/07/02 01:12:16;;;;;;;;;;;;;;;;;;4982739;28;20404;-85
2022/07/02 01:14:41;;;;;;;;;;;;;;;;;;4987259;28;20315;-85
2022/07/02 01:17:06;;;;;;;;;;;;;;;;;;4986391;28;19945;-85
2022/07/02 01:19:31;;;;;;;;;;;;;;;;;;4984587;28;19929;-85
2022/07/02 01:21:56;;;;;;;;;;;;;;;;;;4984220;28;19972;-85
2022/07/02 01:24:21;;;;;;;;;;;;;;;;;;4982161;28;19937;-85
2022/07/02 01:26:47;;;;;;;;;;;;;;;;;;4984726;28;19920;-85
2022/07/02 01:29:12;;;;;;;;;;;;;;;;;;4980122;28;19909;-85
2022/07/02 01:31:37;;;;;;;;;;;;;;;;;;4982458;28;20036;-85
2022/07/02 01:34:02;;;;;;;;;;;;;;;;;;4985603;28;19921;-85
2022/07/02 01:36:27;;;;;;;;;;;;;;;;;;4982887;28;20005;-85
2022/07/02 01:38:52;;;;;;;;;;;;;;;;;;4983027;28;19914;-85
2022/07/02 01:44:02;;;;;;;;;;;;;;;;;;4982772;28;19928;-85
2022/07/02 01:46:27;;;;;;;;;;;;;;;;;;4981386;28;19918;-85
2022/07/02 01:48:52;;;;;;;;;;;;;;;;;;4986204;28;20009;-84
2022/07/02 01:51:17;;;;;;;;;;;;;;;;;;4982374;28;19918;-85
2022/07/02 01:53:42;;;;;;;;;;;;;;;;;;4983929;28;19981;-85
2022/07/02 01:56:07;;;;;;;;;;;;;;;;;;4984650;28;19913;-85
2022/07/02 01:58:33;;;;;;;;;;;;;;;;;;4978564;28;19922;-85
2022/07/02 02:00:58;;;;;;;;;;;;;;;;;;4986847;28;19977;-85
2022/07/02 02:03:23;;;;;;;;;;;;;;;;;;4985642;28;19914;-86
2022/07/02 02:05:48;;;;;;;;;;;;;;;;;;4987359;28;19917;-85
2022/07/02 02:08:13;;;;;;;;;;;;;;;;;;4981692;28;21351;-85
2022/07/02 02:10:39;;;;;;;;;;;;;;;;;;4985507;28;19914;-85
2022/07/02 02:13:04;;;;;;;;;;;;;;;;;;4983812;28;19913;-85
2022/07/02 02:15:29;;;;;;;;;;;;;;;;;;4983884;28;19964;-85
2022/07/02 02:17:54;;;;;;;;;;;;;;;;;;4987878;28;20023;-85
2022/07/02 02:20:19;;;;;;;;;;;;;;;;;;4981328;28;19914;-85
2022/07/02 02:22:44;;;;;;;;;;;;;;;;;;4983443;28;19920;-85
2022/07/02 02:25:10;;;;;;;;;;;;;;;;;;4980459;28;20467;-85
2022/07/02 02:27:35;;;;;;;;;;;;;;;;;;4986631;28;19914;-85
2022/07/02 02:30:00;;;;;;;;;;;;;;;;;;4982001;28;20289;-85
2022/07/02 02:32:25;;;;;;;;;;;;;;;;;;4982658;28;19925;-84
2022/07/02 02:34:50;;;;;;;;;;;;;;;;;;4987572;28;19963;-85
2022/07/02 02:37:15;;;;;;;;;;;;;;;;;;4982663;28;19917;-84
2022/07/02 02:39:41;;;;;;;;;;;;;;;;;;4982568;28;20600;-85
2022/07/02 02:42:06;;;;;;;;;;;;;;;;;;4981976;28;19920;-85
2022/07/02 02:44:31;;;;;;;;;;;;;;;;;;4981157;28;19997;-85
2022/07/02 02:46:56;;;;;;;;;;;;;;;;;;4983031;28;20048;-85
2022/07/02 02:49:22;;;;;;;;;;;;;;;;;;4981160;28;20296;-84
2022/07/02 02:51:47;;;;;;;;;;;;;;;;;;4980720;28;19922;-85
2022/07/02 02:54:12;;;;;;;;;;;;;;;;;;4978270;28;19920;-85
2022/07/02 02:56:37;;;;;;;;;;;;;;;;;;4981897;28;20522;-85
2022/07/02 02:59:02;;;;;;;;;;;;;;;;;;4981931;28;19944;-85
2022/07/02 03:01:27;;;;;;;;;;;;;;;;;;4982004;28;20005;-84
2022/07/02 03:03:53;;;;;;;;;;;;;;;;;;4983634;28;19936;-84
2022/07/02 03:06:20;;;;;;;;;;;;;;;;;;4981762;28;20291;-85
2022/07/02 03:08:45;;;;;;;;;;;;;;;;;;4983700;28;19925;-85
2022/07/02 03:11:10;;;;;;;;;;;;;;;;;;4983245;28;19933;-85
2022/07/02 03:13:36;;;;;;;;;;;;;;;;;;4984267;28;20427;-85
2022/07/02 03:16:01;;;;;;;;;;;;;;;;;;4980655;28;19944;-85
2022/07/02 03:18:26;;;;;;;;;;;;;;;;;;4979127;28;19918;-85
2022/07/02 03:20:52;;;;;;;;;;;;;;;;;;4982999;28;19941;-85
2022/07/02 03:23:17;;;;;;;;;;;;;;;;;;4979636;28;20406;-85
2022/07/02 03:25:42;;;;;;;;;;;;;;;;;;4978837;28;19918;-85
2022/07/02 03:28:07;;;;;;;;;;;;;;;;;;4977908;28;19929;-85
2022/07/02 03:30:32;;;;;;;;;;;;;;;;;;4975138;28;20133;-85
2022/07/02 03:32:58;;;;;;;;;;;;;;;;;;4982342;28;19922;-85
2022/07/02 03:35:23;;;;;;;;;;;;;;;;;;4983616;28;20391;-84
2022/07/02 03:37:48;;;;;;;;;;;;;;;;;;4985317;28;19914;-84
2022/07/02 03:40:13;;;;;;;;;;;;;;;;;;4982499;28;19914;-85
2022/07/02 03:42:38;;;;;;;;;;;;;;;;;;4983527;28;19956;-84
2022/07/02 03:45:04;;;;;;;;;;;;;;;;;;4980602;28;20012;-85
2022/07/02 03:47:29;;;;;;;;;;;;;;;;;;4983221;28;19957;-85
2022/07/02 03:49:54;;;;;;;;;;;;;;;;;;4982762;28;19925;-85
2022/07/02 03:52:19;;;;;;;;;;;;;;;;;;4984487;28;19918;-84
2022/07/02 03:54:44;;;;;;;;;;;;;;;;;;4984904;28;19922;-85
2022/07/02 03:57:09;;;;;;;;;;;;;;;;;;4984311;28;20272;-84
2022/07/02 03:59:35;;;;;;;;;;;;;;;;;;4982409;28;19914;-85
2022/07/02 04:02:00;;;;;;;;;;;;;;;;;;4982226;28;19951;-85
2022/07/02 04:04:25;;;;;;;;;;;;;;;;;;4982918;28;19918;-85
2022/07/02 04:06:50;;;;;;;;;;;;;;;;;;4981771;28;19917;-84
2022/07/02 04:09:15;;;;;;;;;;;;;;;;;;4980491;28;19929;-85
2022/07/02 04:11:40;;;;;;;;;;;;;;;;;;4986088;28;20431;-84
2022/07/02 04:14:06;;;;;;;;;;;;;;;;;;4980824;28;19914;-84
2022/07/02 04:16:31;;;;;;;;;;;;;;;;;;4981818;28;20324;-84
2022/07/02 04:18:56;;;;;;;;;;;;;;;;;;4981521;28;20411;-84
2022/07/02 04:21:21;;;;;;;;;;;;;;;;;;4975972;28;19968;-85
2022/07/02 04:23:47;;;;;;;;;;;;;;;;;;4977541;28;20426;-84
2022/07/02 04:26:12;;;;;;;;;;;;;;;;;;4980000;28;19944;-84
2022/07/02 04:28:37;;;;;;;;;;;;;;;;;;4986162;28;19944;-84
2022/07/02 04:31:02;;;;;;;;;;;;;;;;;;4980232;28;19956;-84
2022/07/02 04:33:27;;;;;;;;;;;;;;;;;;4981966;28;20403;-84
2022/07/02 04:35:52;;;;;;;;;;;;;;;;;;4977898;28;19950;-84
2022/07/02 04:38:18;;;;;;;;;;;;;;;;;;4983593;28;19918;-84
2022/07/02 04:40:43;;;;;;;;;;;;;;;;;;4979741;28;19967;-85
2022/07/02 04:43:08;;;;;;;;;;;;;;;;;;4984014;28;19917;-84
2022/07/02 04:45:33;;;;;;;;;;;;;;;;;;4978677;28;19933;-85
2022/07/02 04:47:59;;;;;;;;;;;;;;;;;;4983753;28;20670;-84
2022/07/02 04:50:24;;;;;;;;;;;;;;;;;;4985226;28;19914;-84
2022/07/02 04:52:49;;;;;;;;;;;;;;;;;;4975057;28;19922;-84
2022/07/02 04:55:14;;;;;;;;;;;;;;;;;;4984567;28;19917;-84
2022/07/02 04:57:40;;;;;;;;;;;;;;;;;;4982318;28;20465;-84
2022/07/02 05:00:05;;;;;;;;;;;;;;;;;;4981681;28;19922;-84
2022/07/02 05:02:30;;;;;;;;;;;;;;;;;;4981528;28;19945;-84
2022/07/02 05:04:55;;;;;;;;;;;;;;;;;;4983573;28;20319;-84
2022/07/02 05:07:20;;;;;;;;;;;;;;;;;;4981683;28;20058;-84
2022/07/02 05:09:45;;;;;;;;;;;;;;;;;;4984539;28;19921;-84
2022/07/02 05:12:11;;;;;;;;;;;;;;;;;;4983562;28;20404;-84
2022/07/02 05:14:38;;;;;;;;;;;;;;;;;;4982769;28;20000;-84
2022/07/02 05:17:03;;;;;;;;;;;;;;;;;;4980448;28;19921;-84
2022/07/02 05:19:28;;;;;;;;;;;;;;;;;;4980810;28;19922;-84
2022/07/02 05:21:53;;;;;;;;;;;;;;;;;;4979821;28;20693;-84
2022/07/02 05:24:19;;;;;;;;;;;;;;;;;;4980756;28;20061;-84
2022/07/02 05:26:44;;;;;;;;;;;;;;;;;;4980642;28;19913;-84
2022/07/02 05:29:09;;;;;;;;;;;;;;;;;;4981956;28;19945;-84
2022/07/02 05:31:34;;;;;;;;;;;;;;;;;;4979484;28;19918;-84
2022/07/02 05:33:59;;;;;;;;;;;;;;;;;;4987730;28;19953;-83
2022/07/02 05:36:24;;;;;;;;;;;;;;;;;;4981772;28;19921;-84
2022/07/02 05:38:50;;;;;;;;;;;;;;;;;;4988791;28;20720;-83
2022/07/02 05:41:15;;;;;;;;;;;;;;;;;;4981652;28;19926;-84
2022/07/02 05:43:40;;;;;;;;;;;;;;;;;;4985539;28;19939;-84
2022/07/02 05:46:05;;;;;;;;;;;;;;;;;;4984679;28;20020;-84
2022/07/02 05:48:30;;;;;;;;;;;;;;;;;;4987705;28;19996;-84
2022/07/02 05:50:55;;;;;;;;;;;;;;;;;;4977305;28;20386;-84
2022/07/02 05:53:21;;;;;;;;;;;;;;;;;;4980705;28;19922;-85
2022/07/02 05:55:46;;;;;;;;;;;;;;;;;;4985233;28;19941;-83
2022/07/02 05:58:12;;;;;;;;;;;;;;;;;;4984664;28;19940;-84
2022/07/02 06:00:37;;;;;;;;;;;;;;;;;;4983731;28;19914;-83
2022/07/02 06:03:02;;;;;;;;;;;;;;;;;;4986549;28;19925;-84
2022/07/02 06:08:11;;;;;;;;;;;;;;;;;;4984333;28;20615;-84
2022/07/02 06:10:36;;;;;;;;;;;;;;;;;;4988097;28;19953;-85
2022/07/02 06:13:02;;;;;;;;;;;;;;;;;;4988647;28;20008;-84
2022/07/02 06:15:27;;;;;;;;;;;;;;;;;;4990341;28;20292;-84
2022/07/02 06:17:53;;;;;;;;;;;;;;;;;;4991102;28;20394;-84
2022/07/02 06:20:18;;;;;;;;;;;;;;;;;;4988026;28;20172;-84
2022/07/02 06:22:43;;;;;;;;;;;;;;;;;;4989044;28;19921;-84
2022/07/02 06:25:08;;;;;;;;;;;;;;;;;;4985781;28;19918;-83
2022/07/02 06:27:34;;;;;;;;;;;;;;;;;;4985138;28;19914;-85
2022/07/02 06:29:59;;;;;;;;;;;;;;;;;;4987672;28;20304;-85
2022/07/02 06:32:24;;;;;;;;;;;;;;;;;;4988618;28;19918;-84
2022/07/02 06:34:49;;;;;;;;;;;;;;;;;;4982659;28;20447;-85
2022/07/02 06:37:15;;;;;;;;;;;;;;;;;;4984005;28;20686;-85
2022/07/02 06:39:40;;;;;;;;;;;;;;;;;;4985007;28;20388;-85
2022/07/02 06:42:20;;;;;;;;;;;;;;;;;;4987431;28;20113;-84
2022/07/02 06:44:46;;;;;;;;;;;;;;;;;;4986958;28;21113;-83
2022/07/02 06:47:11;;;;;;;;;;;;;;;;;;4983883;28;19914;-84
2022/07/02 06:49:36;;;;;;;;;;;;;;;;;;4983295;28;19914;-85
2022/07/02 06:52:02;;;;;;;;;;;;;;;;;;4986188;28;19922;-84
2022/07/02 06:54:27;;;;;;;;;;;;;;;;;;4987043;28;19914;-83
2022/07/02 06:56:52;;;;;;;;;;;;;;;;;;4981463;28;19929;-83
2022/07/02 06:59:17;;;;;;;;;;;;;;;;;;4979653;28;20371;-83
2022/07/02 07:01:43;;;;;;;;;;;;;;;;;;4982749;28;19914;-83
2022/07/02 07:04:08;;;;;;;;;;;;;;;;;;4980157;28;20550;-83
2022/07/02 07:06:37;;;;;;;;;;;;;;;;;;4982447;28;20613;-83
2022/07/02 07:09:02;;;;;;;;;;;;;;;;;;4980298;28;19922;-83
2022/07/02 07:11:27;;;;;;;;;;;;;;;;;;4986377;28;20173;-83
2022/07/02 07:13:52;;;;;;;;;;;;;;;;;;4982717;28;19977;-83
2022/07/02 07:16:18;;;;;;;;;;;;;;;;;;4982185;28;19980;-83
2022/07/02 07:18:46;;;;;;;;;;;;;;;;;;4976888;28;19921;-83
2022/07/02 07:21:11;;;;;;;;;;;;;;;;;;4979708;28;20068;-83
2022/07/02 07:23:37;;;;;;;;;;;;;;;;;;4980619;28;20072;-83
2022/07/02 07:26:02;;;;;;;;;;;;;;;;;;4984437;28;19918;-83
2022/07/02 07:28:27;;;;;;;;;;;;;;;;;;4979336;28;19928;-83
2022/07/02 07:30:52;;;;;;;;;;;;;;;;;;4981499;28;19937;-83
2022/07/02 07:33:17;;;;;;;;;;;;;;;;;;4983337;28;19945;-83
2022/07/02 07:35:42;;;;;;;;;;;;;;;;;;4980856;28;19917;-83
2022/07/02 07:38:08;;;;;;;;;;;;;;;;;;4976995;28;19914;-83
2022/07/02 07:40:33;;;;;;;;;;;;;;;;;;4982869;28;19929;-83
2022/07/02 07:42:58;;;;;;;;;;;;;;;;;;4979583;28;19929;-83
2022/07/02 07:45:23;;;;;;;;;;;;;;;;;;4977182;28;20380;-83
2022/07/02 07:47:48;;;;;;;;;;;;;;;;;;4977846;28;19961;-83
2022/07/02 07:50:14;;;;;;;;;;;;;;;;;;4977372;28;19918;-83
2022/07/02 07:52:39;;;;;;;;;;;;;;;;;;4978120;28;19918;-83
2022/07/02 07:55:04;;;;;;;;;;;;;;;;;;4980725;28;19914;-83
2022/07/02 07:57:29;;;;;;;;;;;;;;;;;;4983392;28;19914;-83
2022/07/02 07:59:54;;;;;;;;;;;;;;;;;;4980292;28;20487;-83
2022/07/02 08:02:20;;;;;;;;;;;;;;;;;;4980991;28;20396;-83
2022/07/02 08:04:45;;;;;;;;;;;;;;;;;;4980892;28;19922;-84
2022/07/02 08:07:10;;;;;;;;;;;;;;;;;;4980461;28;19987;-83
2022/07/02 08:09:35;;;;;;;;;;;;;;;;;;4984804;28;19914;-83
2022/07/02 08:12:00;;;;;;;;;;;;;;;;;;4980653;28;19925;-83
2022/07/02 08:14:25;;;;;;;;;;;;;;;;;;4982385;28;20170;-83
2022/07/02 08:16:51;;;;;;;;;;;;;;;;;;4980552;28;20589;-83
2022/07/02 08:19:16;;;;;;;;;;;;;;;;;;4980121;28;19921;-84
2022/07/02 08:21:41;;;;;;;;;;;;;;;;;;4983213;28;19922;-84
2022/07/02 08:24:06;;;;;;;;;;;;;;;;;;4978260;28;20442;-83
2022/07/02 08:26:31;;;;;;;;;;;;;;;;;;4984117;28;19918;-84
2022/07/02 08:28:56;;;;;;;;;;;;;;;;;;4981021;28;19936;-84
2022/07/02 08:31:22;;;;;;;;;;;;;;;;;;4982484;28;19921;-83
2022/07/02 08:33:47;;;;;;;;;;;;;;;;;;4989965;28;20016;-84
2022/07/02 08:36:12;;;;;;;;;;;;;;;;;;4984937;28;19996;-84
2022/07/02 08:38:37;;;;;;;;;;;;;;;;;;4976979;28;19937;-83
2022/07/02 08:41:02;;;;;;;;;;;;;;;;;;4984428;28;20289;-84
2022/07/02 08:43:28;;;;;;;;;;;;;;;;;;4975441;28;20069;-84
2022/07/02 08:45:53;;;;;;;;;;;;;;;;;;4975907;28;20303;-84
2022/07/02 08:48:18;;;;;;;;;;;;;;;;;;4978508;28;19918;-84
2022/07/02 08:50:43;;;;;;;;;;;;;;;;;;4979690;28;19914;-84
2022/07/02 08:53:08;;;;;;;;;;;;;;;;;;4979628;28;19924;-84
2022/07/02 08:55:33;;;;;;;;;;;;;;;;;;4979009;28;19913;-83
2022/07/02 08:57:59;;;;;;;;;;;;;;;;;;4980513;28;20352;-84
2022/07/02 09:00:24;;;;;;;;;;;;;;;;;;4976283;28;20319;-84
2022/07/02 09:02:50;;;;;;;;;;;;;;;;;;4980248;28;19914;-84
2022/07/02 09:05:15;;;;;;;;;;;;;;;;;;4978677;28;20017;-84
2022/07/02 09:07:40;;;;;;;;;;;;;;;;;;4978899;28;20003;-84
2022/07/02 09:10:05;;;;;;;;;;;;;;;;;;4979553;28;19917;-83
2022/07/02 09:12:31;;;;;;;;;;;;;;;;;;4982704;28;19918;-84
2022/07/02 09:14:56;;;;;;;;;;;;;;;;;;4980394;28;19929;-83
2022/07/02 09:17:21;;;;;;;;;;;;;;;;;;4982375;28;19953;-84
2022/07/02 09:19:46;;;;;;;;;;;;;;;;;;4982115;28;19914;-83
2022/07/02 09:22:12;;;;;;;;;;;;;;;;;;4982711;28;19918;-83
2022/07/02 09:24:37;;;;;;;;;;;;;;;;;;4981663;28;20004;-83
2022/07/02 09:27:02;;;;;;;;;;;;;;;;;;4983158;28;19922;-83
2022/07/02 09:29:28;;;;;;;;;;;;;;;;;;4983033;28;20368;-84
2022/07/02 09:31:53;;;;;;;;;;;;;;;;;;4984048;28;20016;-83
2022/07/02 09:34:18;;;;;;;;;;;;;;;;;;4983619;28;19933;-84
2022/07/02 09:36:43;;;;;;;;;;;;;;;;;;4979652;28;19964;-84
2022/07/02 09:39:08;;;;;;;;;;;;;;;;;;4984363;28;19918;-84
2022/07/02 09:41:33;;;;;;;;;;;;;;;;;;4988092;28;20366;-84
2022/07/02 09:43:59;;;;;;;;;;;;;;;;;;4982151;28;19918;-83
2022/07/02 09:46:24;;;;;;;;;;;;;;;;;;4978780;28;20410;-84
2022/07/02 09:48:49;;;;;;;;;;;;;;;;;;4980909;28;19968;-84
2022/07/02 09:51:15;;;;;;;;;;;;;;;;;;4982220;28;19921;-84
2022/07/02 09:53:40;;;;;;;;;;;;;;;;;;4981755;28;19921;-84
2022/07/02 09:56:05;;;;;;;;;;;;;;;;;;4980091;28;19922;-84
2022/07/02 09:58:30;;;;;;;;;;;;;;;;;;4982224;28;20280;-84
2022/07/02 10:00:55;;;;;;;;;;;;;;;;;;4981411;28;19992;-84
2022/07/02 10:03:21;;;;;;;;;;;;;;;;;;4983182;28;19928;-84
2022/07/02 10:05:46;;;;;;;;;;;;;;;;;;4989884;28;20343;-83
2022/07/02 10:08:11;;;;;;;;;;;;;;;;;;4989348;28;20414;-84
2022/07/02 10:10:38;;;;;;;;;;;;;;;;;;4990233;28;20012;-83
2022/07/02 10:13:03;;;;;;;;;;;;;;;;;;4990423;28;19956;-84
2022/07/02 10:15:29;;;;;;;;;;;;;;;;;;4978307;28;20364;-83
2022/07/02 10:17:57;;;;;;;;;;;;;;;;;;4989178;28;19914;-84
2022/07/02 10:20:23;;;;;;;;;;;;;;;;;;4988377;28;19976;-83
2022/07/02 10:22:50;;;;;;;;;;;;;;;;;;4991956;28;19945;-84
2022/07/02 10:25:16;;;;;;;;;;;;;;;;;;4986919;28;19918;-84
2022/07/02 10:27:41;;;;;;;;;;;;;;;;;;4990123;28;20467;-84
2022/07/02 10:30:06;;;;;;;;;;;;;;;;;;4986000;28;20368;-84
2022/07/02 10:32:31;;;;;;;;;;;;;;;;;;4986816;28;19918;-84
2022/07/02 10:34:56;;;;;;;;;;;;;;;;;;4987147;28;19965;-85
2022/07/02 10:37:25;;;;;;;;;;;;;;;;;;4989738;28;19918;-84
2022/07/02 10:39:50;;;;;;;;;;;;;;;;;;4991934;28;19956;-83
2022/07/02 10:42:15;;;;;;;;;;;;;;;;;;4989563;28;20035;-84
2022/07/02 10:44:44;;;;;;;;;;;;;;;;;;4987092;28;19918;-83
2022/07/02 10:47:09;;;;;;;;;;;;;;;;;;4984979;28;20553;-84
2022/07/02 10:49:46;;;;;;;;;;;;;;;;;;4989880;28;19933;-84
2022/07/02 10:52:23;;;;;;;;;;;;;;;;;;4989176;28;19924;-84
2022/07/02 10:54:50;;;;;;;;;;;;;;;;;;4989772;28;19914;-83
2022/07/02 10:57:16;;;;;;;;;;;;;;;;;;4989468;28;19914;-84
2022/07/02 10:59:41;;;;;;;;;;;;;;;;;;4986773;28;19918;-82
2022/07/02 11:13:30;;;;;;;;;;;;;;;;;;4963581;28;19922;-83
2022/07/02 11:15:55;;;;;;;;;;;;;;;;;;4986134;28;19914;-83
2022/07/02 11:18:20;;;;;;;;;;;;;;;;;;4983069;28;19917;-84
2022/07/02 11:20:46;;;;;;;;;;;;;;;;;;4986519;28;19973;-83
2022/07/02 11:23:11;;;;;;;;;;;;;;;;;;4989142;28;19921;-83
2022/07/02 11:25:36;;;;;;;;;;;;;;;;;;4987255;28;19953;-84
2022/07/02 11:28:11;;;;;;;;;;;;;;;;;;;;;
2022/07/02 11:30:37;;;;;;;;;;;;;;;;;;4984647;28;19918;-84
2022/07/02 11:33:02;;;;;;;;;;;;;;;;;;4984484;28;21798;-85
2022/07/02 11:38:11;;;;;;;;;;;;;;;;;;4987745;28;20418;-85
2022/07/02 11:43:46;;;;;;;;;;;;;;;;;;;;;
2022/07/02 11:49:31;;;;;;;;;;;;;;;;;;;;;
2022/07/02 11:51:59;;;;;;;;;;;;;;;;;;4956397;28;19969;-84
2022/07/02 11:55:05;;;;;;;;;;;;;;;;;;4985440;28;19918;-85
2022/07/02 11:57:29;;;;;;;;;;;;;;;;;;4982215;28;20004;-84
2022/07/02 12:00:04;;;;;;;;;;;;;;;;;;;;;
2022/07/02 12:08:27;;;;;;;;;;;;;;;;;;4988465;28;19905;-84
2022/07/02 12:31:14;;;;;;;;;;;;;;;;;;4908530;29;19977;-84
2022/07/02 12:36:56;;;;;;;;;;;;;;;;;;4887217;29;20019;-84
2022/07/02 12:39:52;;;;;;;;;;;;;;;;;;;;;
2022/07/02 12:42:10;;;;;;;;;;;;;;;;;;4936616;28;20020;-84
2022/07/02 12:44:48;;;;;;;;;;;;;;;;;;;;;
2022/07/02 12:50:28;;;;;;;;;;;;;;;;;;;;;
2022/07/02 12:52:48;;;;;;;;;;;;;;;;;;5044020;23;19925;-84
2022/07/02 12:55:13;;;;;;;;;;;;;;;;;;5027855;28;20281;-85
2022/07/02 12:57:39;;;;;;;;;;;;;;;;;;5029080;28;19935;-84
2022/07/02 13:00:05;;;;;;;;;;;;;;;;;;5022551;28;19914;-85
2022/07/02 13:02:30;;;;;;;;;;;;;;;;;;5008483;28;19937;-85
2022/07/02 13:04:55;;;;;;;;;;;;;;;;;;5008369;28;19924;-83
2022/07/02 13:07:21;;;;;;;;;;;;;;;;;;5010044;28;20379;-83
2022/07/02 13:09:46;;;;;;;;;;;;;;;;;;5000078;28;19909;-84
2022/07/02 13:12:11;;;;;;;;;;;;;;;;;;5007583;28;20642;-85
2022/07/02 13:14:36;;;;;;;;;;;;;;;;;;5009253;28;20377;-83
2022/07/02 13:17:01;;;;;;;;;;;;;;;;;;5009300;28;19921;-85
2022/07/02 13:19:27;;;;;;;;;;;;;;;;;;5010301;28;20008;-85
2022/07/02 13:21:52;;;;;;;;;;;;;;;;;;5010596;28;20367;-84
2022/07/02 13:24:17;;;;;;;;;;;;;;;;;;5007238;28;19932;-84
2022/07/02 13:26:42;;;;;;;;;;;;;;;;;;5009758;28;20051;-83
2022/07/02 13:29:08;;;;;;;;;;;;;;;;;;5021612;28;20402;-83
2022/07/02 13:31:33;;;;;;;;;;;;;;;;;;5008502;28;19924;-83
2022/07/02 13:33:58;;;;;;;;;;;;;;;;;;5011216;28;20051;-83
2022/07/02 13:36:23;;;;;;;;;;;;;;;;;;5005733;28;20410;-84
2022/07/02 13:38:48;;;;;;;;;;;;;;;;;;5001389;28;20732;-84
2022/07/02 13:41:14;;;;;;;;;;;;;;;;;;5006331;28;20389;-83
2022/07/02 13:43:41;;;;;;;;;;;;;;;;;;5024073;28;20557;-84
2022/07/02 13:46:06;;;;;;;;;;;;;;;;;;5006091;28;19920;-84
2022/07/02 13:48:32;;;;;;;;;;;;;;;;;;5007738;28;20555;-83
2022/07/02 13:50:57;;;;;;;;;;;;;;;;;;5010716;28;19913;-83
2022/07/02 13:53:22;;;;;;;;;;;;;;;;;;5010291;28;19925;-83
2022/07/02 13:55:47;;;;;;;;;;;;;;;;;;5006141;28;19920;-84
2022/07/02 13:58:13;;;;;;;;;;;;;;;;;;5009888;28;19918;-84
2022/07/02 14:03:38;;;;;;;;;;;;;;;;;;5010998;28;20425;-84
2022/07/02 14:09:03;;;;;;;;;;;;;;;;;;5010491;28;19916;-84
2022/07/02 14:11:29;;;;;;;;;;;;;;;;;;5009546;28;19917;-87
2022/07/02 14:13:54;;;;;;;;;;;;;;;;;;5005616;28;20367;-85
2022/07/02 14:40:18;;;;;;;;;;;;;;;;;;5060933;27;19972;-81
2022/07/02 14:42:43;;;;;;;;;;;;;;;;;;5042815;28;19967;-83
2022/07/02 14:45:08;;;;;;;;;;;;;;;;;;5051516;28;19912;-83
2022/07/02 14:47:34;;;;;;;;;;;;;;;;;;5045704;28;19968;-83
2022/07/02 14:49:59;;;;;;;;;;;;;;;;;;5043995;28;19921;-83
2022/07/02 14:52:24;;;;;;;;;;;;;;;;;;5046480;28;19913;-84
2022/07/02 14:54:49;;;;;;;;;;;;;;;;;;5048458;28;19917;-84
2022/07/02 14:57:14;;;;;;;;;;;;;;;;;;5047011;28;19918;-83
2022/07/02 14:59:41;;;;;;;;;;;;;;;;;;5044872;28;19913;-83
2022/07/02 15:02:07;;;;;;;;;;;;;;;;;;5042874;28;19913;-84
2022/07/02 15:04:32;;;;;;;;;;;;;;;;;;5045949;28;20291;-82
2022/07/02 15:06:58;;;;;;;;;;;;;;;;;;5043299;28;19913;-83
2022/07/02 15:09:23;;;;;;;;;;;;;;;;;;5046358;28;19970;-84
2022/07/02 15:11:48;;;;;;;;;;;;;;;;;;5044834;28;20440;-84
2022/07/02 15:16:58;;;;;;;;;;;;;;;;;;5045949;28;19924;-85
2022/07/02 15:19:23;;;;;;;;;;;;;;;;;;5045021;28;19913;-84
2022/07/02 15:21:48;;;;;;;;;;;;;;;;;;5046408;28;19921;-84
2022/07/02 15:24:13;;;;;;;;;;;;;;;;;;5048198;28;20028;-81
2022/07/02 15:26:38;;;;;;;;;;;;;;;;;;5044885;28;20132;-87
2022/07/02 15:29:05;;;;;;;;;;;;;;;;;;5043671;28;19960;-84
2022/07/02 15:31:30;;;;;;;;;;;;;;;;;;5056884;28;19924;-85
2022/07/02 15:34:01;;;;;;;;;;;;;;;;;;5042377;28;19913;-84
2022/07/02 15:36:26;;;;;;;;;;;;;;;;;;5046767;28;19936;-85
2022/07/02 15:38:51;;;;;;;;;;;;;;;;;;5041784;28;20376;-85
2022/07/02 15:41:16;;;;;;;;;;;;;;;;;;5036174;28;19913;-85
2022/07/02 15:43:42;;;;;;;;;;;;;;;;;;5032143;28;20004;-84
2022/07/02 15:46:07;;;;;;;;;;;;;;;;;;5038149;28;19916;-84
2022/07/02 15:48:32;;;;;;;;;;;;;;;;;;5031536;28;19925;-86
2022/07/02 15:50:58;;;;;;;;;;;;;;;;;;5035638;28;20380;-87
2022/07/02 15:53:23;;;;;;;;;;;;;;;;;;5034469;28;19958;-86
2022/07/02 15:55:48;;;;;;;;;;;;;;;;;;5027148;28;19960;-85
2022/07/02 15:58:15;;;;;;;;;;;;;;;;;;5022789;28;19929;-84
2022/07/02 16:00:41;;;;;;;;;;;;;;;;;;5034144;28;19924;-87
2022/07/02 16:03:06;;;;;;;;;;;;;;;;;;5033416;28;20319;-86
2022/07/02 16:05:31;;;;;;;;;;;;;;;;;;5048142;28;20536;-85
2022/07/02 16:07:56;;;;;;;;;;;;;;;;;;5033413;28;19917;-86
2022/07/02 16:10:21;;;;;;;;;;;;;;;;;;5031984;28;20039;-86
2022/07/02 16:12:46;;;;;;;;;;;;;;;;;;5031707;28;19913;-85
2022/07/02 16:15:12;;;;;;;;;;;;;;;;;;5037516;28;19920;-86
2022/07/02 16:17:37;;;;;;;;;;;;;;;;;;5041446;28;19992;-85
2022/07/02 16:20:02;;;;;;;;;;;;;;;;;;5038362;28;20268;-86
2022/07/02 16:22:27;;;;;;;;;;;;;;;;;;5039115;28;19913;-85
2022/07/02 16:24:53;;;;;;;;;;;;;;;;;;5026067;28;19917;-85
2022/07/02 16:27:18;;;;;;;;;;;;;;;;;;5033256;28;19917;-84
2022/07/02 16:29:43;;;;;;;;;;;;;;;;;;5035962;28;20015;-85
2022/07/02 16:32:08;;;;;;;;;;;;;;;;;;5029874;28;19917;-84
2022/07/02 16:34:33;;;;;;;;;;;;;;;;;;5031320;28;19921;-86
2022/07/02 16:36:58;;;;;;;;;;;;;;;;;;5031778;28;19960;-84
2022/07/02 16:39:24;;;;;;;;;;;;;;;;;;5034624;28;19921;-85
2022/07/02 16:41:49;;;;;;;;;;;;;;;;;;5028729;28;19936;-84
2022/07/02 16:44:14;;;;;;;;;;;;;;;;;;5028739;28;20339;-83
2022/07/02 16:46:39;;;;;;;;;;;;;;;;;;5029548;28;19926;-84
2022/07/02 16:49:05;;;;;;;;;;;;;;;;;;5031546;28;20351;-84
2022/07/02 16:51:31;;;;;;;;;;;;;;;;;;5027235;28;19913;-84
2022/07/02 16:53:56;;;;;;;;;;;;;;;;;;5028049;28;19921;-84
2022/07/02 16:56:21;;;;;;;;;;;;;;;;;;5034282;28;19913;-83
2022/07/02 16:58:46;;;;;;;;;;;;;;;;;;5026648;28;20004;-84
2022/07/02 17:01:11;;;;;;;;;;;;;;;;;;5031737;28;20023;-85
2022/07/02 17:03:38;;;;;;;;;;;;;;;;;;5030093;28;19924;-84
2022/07/02 17:06:03;;;;;;;;;;;;;;;;;;5027602;28;19913;-84
2022/07/02 17:08:31;;;;;;;;;;;;;;;;;;5023547;28;19979;-85
2022/07/02 17:13:40;;;;;;;;;;;;;;;;;;5028328;28;20462;-85
2022/07/02 17:16:05;;;;;;;;;;;;;;;;;;5032820;28;19913;-85
2022/07/02 17:18:37;;;;;;;;;;;;;;;;;;5025399;28;19922;-85
2022/07/02 17:21:02;;;;;;;;;;;;;;;;;;5033129;28;19970;-85
2022/07/02 17:23:30;;;;;;;;;;;;;;;;;;5035145;28;20000;-84
2022/07/02 17:25:56;;;;;;;;;;;;;;;;;;5034581;28;19913;-85
2022/07/02 17:28:21;;;;;;;;;;;;;;;;;;5022864;28;20122;-86
2022/07/02 17:30:47;;;;;;;;;;;;;;;;;;5025841;28;20307;-86
2022/07/02 17:33:14;;;;;;;;;;;;;;;;;;5022775;28;19917;-85
2022/07/02 17:38:33;;;;;;;;;;;;;;;;;;5048293;28;19920;-85
2022/07/02 17:40:59;;;;;;;;;;;;;;;;;;5028142;28;19920;-84
2022/07/02 17:43:40;;;;;;;;;;;;;;;;;;;;;
2022/07/02 17:46:05;;;;;;;;;;;;;;;;;;5029390;28;21500;-86
2022/07/02 17:48:31;;;;;;;;;;;;;;;;;;5026838;28;19923;-84
2022/07/02 17:50:56;;;;;;;;;;;;;;;;;;5025030;28;20004;-85
2022/07/02 17:53:21;;;;;;;;;;;;;;;;;;5025439;28;19971;-85
2022/07/02 17:55:47;;;;;;;;;;;;;;;;;;5023981;28;19913;-86
2022/07/02 17:58:12;;;;;;;;;;;;;;;;;;5026901;28;19939;-85
2022/07/02 18:00:37;;;;;;;;;;;;;;;;;;5027958;28;19957;-86
2022/07/02 18:03:02;;;;;;;;;;;;;;;;;;5028342;28;19944;-84
2022/07/02 18:05:28;;;;;;;;;;;;;;;;;;5026959;28;19933;-84
2022/07/02 18:07:53;;;;;;;;;;;;;;;;;;5027296;28;19918;-85
2022/07/02 18:10:18;;;;;;;;;;;;;;;;;;5029858;28;20013;-85
2022/07/02 18:12:44;;;;;;;;;;;;;;;;;;5035590;28;19962;-85
2022/07/02 18:15:09;;;;;;;;;;;;;;;;;;5029117;28;19966;-85
2022/07/02 18:17:34;;;;;;;;;;;;;;;;;;5029599;28;20825;-85
2022/07/02 18:19:59;;;;;;;;;;;;;;;;;;5024640;28;19921;-85